Time;durP1;ratioP1;P1;durP2;ratioP2;P2;SDS_P1;SDS_P2;PMS_P1;PMS_P2;Temp;Humidity;BMP_temperature;BMP_pressure;BME280_temperature;BME280_humidity;BME280_pressure;Samples;Min_cycle;Max_cycle;Signal;HPM_P1;HPM_P2
2022/06/17 00:02:10;;;;;;;9.88;3.53;;;;;;;;;;4995664;28;20129;-79
2022/06/17 00:04:36;;;;;;;6.20;3.10;;;;;;;;;;4995808;28;20073;-79
2022/06/17 00:07:07;;;;;;;6.63;3.25;;;;;;;;;;4995839;28;20049;-79
2022/06/17 00:09:35;;;;;;;7.18;3.58;;;;;;;;;;4997492;28;20117;-79
2022/06/17 00:12:01;;;;;;;8.52;3.65;;;;;;;;;;4997466;28;20478;-79
2022/06/17 00:14:31;;;;;;;10.20;3.90;;;;;;;;;;4996523;28;20061;-79
2022/06/17 00:16:57;;;;;;;5.82;3.35;;;;;;;;;;4995647;28;20504;-79
2022/06/17 00:19:24;;;;;;;8.32;3.90;;;;;;;;;;4995627;28;20034;-79
2022/06/17 00:21:51;;;;;;;16.15;4.03;;;;;;;;;;4995318;28;20065;-79
2022/06/17 00:24:25;;;;;;;8.70;3.67;;;;;;;;;;4996452;28;20124;-79
2022/06/17 00:26:52;;;;;;;10.07;3.50;;;;;;;;;;4996592;28;20042;-79
2022/06/17 00:29:19;;;;;;;7.88;4.00;;;;;;;;;;4995415;28;20034;-79
2022/06/17 00:31:45;;;;;;;9.88;3.55;;;;;;;;;;4996291;28;20489;-79
2022/06/17 00:34:11;;;;;;;7.63;3.70;;;;;;;;;;4995294;28;20081;-79
2022/06/17 00:36:38;;;;;;;9.70;3.53;;;;;;;;;;4996574;28;20119;-79
2022/06/17 00:39:10;;;;;;;5.18;3.22;;;;;;;;;;4995262;28;20031;-79
2022/06/17 00:41:37;;;;;;;11.38;3.55;;;;;;;;;;4994992;28;20493;-79
2022/06/17 00:44:19;;;;;;;10.38;4.10;;;;;;;;;;4996268;28;20043;-79
2022/06/17 00:46:48;;;;;;;9.30;3.45;;;;;;;;;;4997008;28;20117;-79
2022/06/17 00:49:17;;;;;;;9.10;3.80;;;;;;;;;;4994598;28;20034;-79
2022/06/17 00:51:46;;;;;;;8.82;3.22;;;;;;;;;;4994337;28;20038;-79
2022/06/17 00:54:15;;;;;;;9.57;3.30;;;;;;;;;;4994972;28;20137;-79
2022/06/17 00:56:41;;;;;;;9.50;3.83;;;;;;;;;;4996323;28;20117;-79
2022/06/17 00:59:09;;;;;;;7.35;3.38;;;;;;;;;;4996133;28;20049;-79
2022/06/17 01:01:44;;;;;;;8.40;3.60;;;;;;;;;;4996448;28;20117;-79
2022/06/17 01:04:11;;;;;;;8.70;3.60;;;;;;;;;;4994805;28;20039;-79
2022/06/17 01:06:41;;;;;;;9.20;3.88;;;;;;;;;;4994693;28;20050;-79
2022/06/17 01:12:03;;;;;;;8.25;3.85;;;;;;;;;;4995217;28;20089;-79
2022/06/17 01:14:30;;;;;;;7.82;3.55;;;;;;;;;;4994143;28;20058;-79
2022/06/17 01:16:57;;;;;;;9.15;3.40;;;;;;;;;;4995780;28;20068;-79
2022/06/17 01:19:32;;;;;;;8.90;4.07;;;;;;;;;;4995787;28;20031;-79
2022/06/17 01:22:05;;;;;;;10.70;3.90;;;;;;;;;;4994186;28;20038;-79
2022/06/17 01:24:31;;;;;;;10.68;3.88;;;;;;;;;;4995877;28;20081;-79
2022/06/17 01:26:57;;;;;;;8.85;4.15;;;;;;;;;;4995735;28;20405;-79
2022/06/17 01:29:24;;;;;;;9.90;3.42;;;;;;;;;;4995896;28;20041;-79
2022/06/17 01:31:52;;;;;;;11.57;4.00;;;;;;;;;;4996192;28;20050;-79
2022/06/17 01:34:19;;;;;;;13.65;4.03;;;;;;;;;;4994989;28;20157;-79
2022/06/17 01:36:46;;;;;;;8.07;3.60;;;;;;;;;;4995511;28;20083;-79
2022/06/17 01:39:13;;;;;;;7.07;3.92;;;;;;;;;;4995453;28;20042;-79
2022/06/17 01:41:39;;;;;;;6.95;3.83;;;;;;;;;;4994014;28;20176;-79
2022/06/17 01:44:15;;;;;;;8.80;3.92;;;;;;;;;;4994136;28;20035;-79
2022/06/17 01:46:42;;;;;;;7.38;4.10;;;;;;;;;;4995967;28;20042;-79
2022/06/17 01:49:19;;;;;;;10.52;4.13;;;;;;;;;;4995357;28;20042;-79
2022/06/17 01:51:48;;;;;;;8.32;3.50;;;;;;;;;;4993782;28;20046;-79
2022/06/17 01:54:20;;;;;;;6.00;3.70;;;;;;;;;;4994014;28;20121;-79
2022/06/17 01:56:48;;;;;;;7.50;4.03;;;;;;;;;;4994618;28;20543;-79
2022/06/17 01:59:32;;;;;;;11.45;4.38;;;;;;;;;;4995243;28;20034;-79
2022/06/17 02:02:00;;;;;;;11.30;3.97;;;;;;;;;;4995061;28;20088;-79
2022/06/17 02:04:32;;;;;;;7.97;3.78;;;;;;;;;;4993818;28;20034;-79
2022/06/17 02:07:05;;;;;;;8.88;3.40;;;;;;;;;;4995119;28;20046;-79
2022/06/17 02:09:31;;;;;;;7.97;3.63;;;;;;;;;;4994290;28;20030;-79
2022/06/17 02:12:00;;;;;;;10.13;4.03;;;;;;;;;;4995496;28;20054;-79
2022/06/17 02:14:26;;;;;;;7.18;3.95;;;;;;;;;;4993384;28;20058;-79
2022/06/17 02:16:54;;;;;;;8.80;4.05;;;;;;;;;;4993769;28;20030;-79
2022/06/17 02:19:23;;;;;;;8.88;4.05;;;;;;;;;;4995061;28;20084;-79
2022/06/17 02:21:51;;;;;;;8.25;4.05;;;;;;;;;;4995620;28;20125;-79
2022/06/17 02:24:18;;;;;;;9.63;4.35;;;;;;;;;;4995444;28;20038;-79
2022/06/17 02:26:45;;;;;;;8.70;3.83;;;;;;;;;;4994823;28;20031;-79
2022/06/17 02:29:12;;;;;;;13.15;3.83;;;;;;;;;;4993622;28;20038;-79
2022/06/17 02:31:39;;;;;;;10.38;3.97;;;;;;;;;;4995549;28;20121;-79
2022/06/17 02:34:07;;;;;;;6.68;3.83;;;;;;;;;;4994927;28;20125;-79
2022/06/17 02:36:42;;;;;;;7.97;3.55;;;;;;;;;;4993617;28;20396;-79
2022/06/17 02:39:10;;;;;;;8.52;4.05;;;;;;;;;;4993317;28;20038;-79
2022/06/17 02:41:36;;;;;;;10.35;4.65;;;;;;;;;;4993337;28;20125;-79
2022/06/17 02:44:26;;;;;;;12.48;4.05;;;;;;;;;;4994647;28;20066;-79
2022/06/17 02:46:55;;;;;;;7.90;4.45;;;;;;;;;;4989737;28;20042;-79
2022/06/17 02:49:23;;;;;;;8.88;4.40;;;;;;;;;;4993764;28;20444;-79
2022/06/17 02:51:49;;;;;;;7.30;3.78;;;;;;;;;;4994798;28;20100;-79
2022/06/17 02:54:42;;;;;;;12.45;4.22;;;;;;;;;;4994706;28;20050;-79
2022/06/17 02:57:09;;;;;;;8.77;4.00;;;;;;;;;;4991033;28;20124;-79
2022/06/17 03:00:02;;;;;;;10.70;3.95;;;;;;;;;;4993407;28;20065;-79
2022/06/17 03:02:31;;;;;;;7.40;4.32;;;;;;;;;;4978263;28;20077;-79
2022/06/17 03:04:58;;;;;;;7.97;3.60;;;;;;;;;;4995100;28;20054;-79
2022/06/17 03:07:28;;;;;;;9.50;4.30;;;;;;;;;;4994742;28;20035;-79
2022/06/17 03:09:55;;;;;;;9.40;4.03;;;;;;;;;;4994346;28;20133;-79
2022/06/17 03:12:22;;;;;;;13.25;4.60;;;;;;;;;;4994275;28;20088;-79
2022/06/17 03:14:54;;;;;;;9.60;4.05;;;;;;;;;;4997681;28;20060;-79
2022/06/17 03:17:23;;;;;;;9.77;4.03;;;;;;;;;;4997807;28;20034;-79
2022/06/17 03:19:49;;;;;;;10.93;4.60;;;;;;;;;;4996957;28;20030;-79
2022/06/17 03:22:15;;;;;;;7.70;4.18;;;;;;;;;;4998472;28;20092;-79
2022/06/17 03:25:02;;;;;;;11.07;4.47;;;;;;;;;;4996563;28;20049;-79
2022/06/17 03:27:42;;;;;;;9.80;4.10;;;;;;;;;;4976185;28;20101;-79
2022/06/17 03:30:08;;;;;;;13.17;4.43;;;;;;;;;;4997191;28;20038;-79
2022/06/17 03:32:36;;;;;;;10.25;4.18;;;;;;;;;;4997169;28;20074;-79
2022/06/17 03:35:03;;;;;;;14.13;4.63;;;;;;;;;;4997722;28;20080;-79
2022/06/17 03:37:32;;;;;;;7.55;4.38;;;;;;;;;;4997870;28;20529;-79
2022/06/17 03:40:00;;;;;;;14.00;4.60;;;;;;;;;;4997512;28;20050;-79
2022/06/17 03:42:30;;;;;;;8.05;4.15;;;;;;;;;;4997293;28;20046;-79
2022/06/17 03:45:19;;;;;;;8.07;4.38;;;;;;;;;;4996240;28;20046;-79
2022/06/17 03:47:51;;;;;;;6.47;4.03;;;;;;;;;;4992135;28;20042;-79
2022/06/17 03:50:32;;;;;;;7.82;4.88;;;;;;;;;;4996258;28;20038;-79
2022/06/17 03:53:02;;;;;;;8.18;4.20;;;;;;;;;;4997481;28;20042;-79
2022/06/17 03:55:28;;;;;;;8.55;4.30;;;;;;;;;;4996088;28;20042;-79
2022/06/17 03:57:55;;;;;;;7.97;4.15;;;;;;;;;;4997462;28;20081;-79
2022/06/17 04:00:35;;;;;;;9.85;4.47;;;;;;;;;;4997006;28;20038;-79
2022/06/17 04:03:03;;;;;;;10.80;4.57;;;;;;;;;;4997430;28;20077;-79
2022/06/17 04:05:29;;;;;;;10.70;4.53;;;;;;;;;;4995871;28;20042;-79
2022/06/17 04:07:55;;;;;;;9.32;4.18;;;;;;;;;;4997177;28;20042;-80
2022/06/17 04:10:25;;;;;;;10.98;4.65;;;;;;;;;;4996379;28;20034;-79
2022/06/17 04:12:52;;;;;;;7.28;4.10;;;;;;;;;;4995605;28;20629;-79
2022/06/17 04:15:29;;;;;;;9.93;4.35;;;;;;;;;;4996060;28;20030;-79
2022/06/17 04:17:55;;;;;;;10.13;4.53;;;;;;;;;;4995744;28;20038;-79
2022/06/17 04:20:21;;;;;;;11.45;4.38;;;;;;;;;;4995915;28;20041;-79
2022/06/17 04:22:49;;;;;;;7.15;4.03;;;;;;;;;;4995635;28;20126;-79
2022/06/17 04:25:18;;;;;;;9.70;4.50;;;;;;;;;;4995546;28;20038;-79
2022/06/17 04:27:56;;;;;;;8.07;4.40;;;;;;;;;;4997195;28;20478;-79
2022/06/17 04:30:24;;;;;;;8.13;4.03;;;;;;;;;;4997104;28;20133;-79
2022/06/17 04:32:53;;;;;;;8.82;4.50;;;;;;;;;;4995463;28;20046;-79
2022/06/17 04:35:19;;;;;;;9.25;4.60;;;;;;;;;;4995648;28;20030;-79
2022/06/17 04:37:46;;;;;;;8.20;4.57;;;;;;;;;;4996873;28;20481;-79
2022/06/17 04:40:35;;;;;;;8.45;4.68;;;;;;;;;;4995516;28;20057;-79
2022/06/17 04:43:04;;;;;;;8.15;4.03;;;;;;;;;;4990766;28;20054;-80
2022/06/17 04:45:33;;;;;;;8.45;4.40;;;;;;;;;;4995357;28;20039;-80
2022/06/17 04:47:59;;;;;;;8.48;4.68;;;;;;;;;;4996796;28;20082;-80
2022/06/17 04:50:27;;;;;;;9.23;4.57;;;;;;;;;;4996687;28;20040;-80
2022/06/17 04:52:57;;;;;;;7.82;3.58;;;;;;;;;;4997004;28;20121;-80
2022/06/17 04:55:45;;;;;;;10.48;4.60;;;;;;;;;;4995089;28;20140;-80
2022/06/17 04:58:16;;;;;;;7.57;4.38;;;;;;;;;;4995491;28;20046;-80
2022/06/17 05:00:47;;;;;;;8.57;3.95;;;;;;;;;;4996476;28;20477;-80
2022/06/17 05:03:12;;;;;;;;;;;;;;;;;;4995311;28;20074;-80
2022/06/17 05:05:40;;;;;;;7.78;4.45;;;;;;;;;;4996558;28;19917;-80
2022/06/17 05:08:10;;;;;;;9.25;4.30;;;;;;;;;;4996424;28;20133;-80
2022/06/17 05:10:38;;;;;;;8.18;3.88;;;;;;;;;;4996016;28;20034;-80
2022/06/17 05:13:11;;;;;;;9.23;4.95;;;;;;;;;;4996233;28;20129;-80
2022/06/17 05:15:37;;;;;;;8.20;4.20;;;;;;;;;;4994372;28;20053;-79
2022/06/17 05:18:03;;;;;;;9.80;4.30;;;;;;;;;;4994466;28;20093;-79
2022/06/17 05:20:30;;;;;;;7.97;3.63;;;;;;;;;;4994811;28;20149;-79
2022/06/17 05:23:00;;;;;;;7.28;4.30;;;;;;;;;;4994865;28;20038;-79
2022/06/17 05:25:28;;;;;;;10.88;4.65;;;;;;;;;;4994696;28;20513;-79
2022/06/17 05:27:54;;;;;;;9.23;4.30;;;;;;;;;;4995647;28;20493;-79
2022/06/17 05:30:21;;;;;;;8.73;3.67;;;;;;;;;;5008412;28;20401;-79
2022/06/17 05:32:48;;;;;;;12.70;4.53;;;;;;;;;;4998822;28;20041;-80
2022/06/17 05:35:15;;;;;;;7.45;4.07;;;;;;;;;;4992195;28;20133;-80
2022/06/17 05:37:44;;;;;;;10.23;4.38;;;;;;;;;;4992590;28;20043;-79
2022/06/17 05:40:20;;;;;;;6.45;3.85;;;;;;;;;;4994653;28;20041;-78
2022/06/17 05:42:46;;;;;;;7.57;3.65;;;;;;;;;;4993780;28;20034;-79
2022/06/17 05:45:18;;;;;;;10.30;4.35;;;;;;;;;;4994000;28;20080;-74
2022/06/17 05:47:50;;;;;;;5.28;3.63;;;;;;;;;;4995436;28;20053;-79
2022/06/17 05:50:22;;;;;;;8.30;3.90;;;;;;;;;;4995362;28;20097;-79
2022/06/17 05:53:07;;;;;;;;;;;;;;;;;;;;;
2022/06/17 05:55:55;;;;;;;;;;;;;;;;;;;;;
2022/06/17 05:58:33;;;;;;;6.70;3.65;;;;;;;;;;4995385;28;20400;-80
2022/06/17 06:01:20;;;;;;;;;;;;;;;;;;;;;
2022/06/17 06:03:58;;;;;;;10.02;3.88;;;;;;;;;;4995142;28;20030;-80
2022/06/17 06:06:25;;;;;;;9.20;3.88;;;;;;;;;;4992552;28;20060;-69
2022/06/17 06:08:51;;;;;;;9.60;4.60;;;;;;;;;;4994005;28;20054;-69
2022/06/17 06:11:17;;;;;;;9.88;3.90;;;;;;;;;;4994352;28;20038;-69
2022/06/17 06:13:43;;;;;;;17.25;4.15;;;;;;;;;;5002912;28;20054;-69
2022/06/17 06:16:10;;;;;;;6.97;3.50;;;;;;;;;;5000723;28;20133;-69
2022/06/17 06:18:39;;;;;;;12.02;3.83;;;;;;;;;;4995331;28;20053;-69
2022/06/17 06:21:05;;;;;;;11.95;4.07;;;;;;;;;;5010929;28;20103;-69
2022/06/17 06:23:35;;;;;;;7.22;4.10;;;;;;;;;;4997203;28;20049;-69
2022/06/17 06:26:02;;;;;;;8.05;3.80;;;;;;;;;;4997340;28;20042;-70
2022/06/17 06:28:28;;;;;;;5.28;4.10;;;;;;;;;;5012582;28;20137;-70
2022/06/17 06:30:56;;;;;;;6.32;4.00;;;;;;;;;;5014478;28;20030;-70
2022/06/17 06:33:22;;;;;;;9.40;4.13;;;;;;;;;;4990154;28;20042;-70
2022/06/17 06:35:48;;;;;;;10.23;4.78;;;;;;;;;;4997830;28;20042;-70
2022/06/17 06:38:15;;;;;;;10.05;4.45;;;;;;;;;;4995431;28;20042;-70
2022/06/17 06:40:41;;;;;;;9.32;4.20;;;;;;;;;;5009465;28;20029;-70
2022/06/17 06:43:18;;;;;;;10.38;4.00;;;;;;;;;;4997554;28;20082;-70
2022/06/17 06:45:45;;;;;;;7.85;4.03;;;;;;;;;;4993888;28;20449;-70
2022/06/17 06:48:12;;;;;;;13.35;4.38;;;;;;;;;;4994998;28;20038;-70
2022/06/17 06:50:38;;;;;;;8.30;4.20;;;;;;;;;;4997092;28;20465;-70
2022/06/17 06:53:05;;;;;;;7.55;3.80;;;;;;;;;;4999852;28;20042;-70
2022/06/17 06:55:32;;;;;;;6.50;3.78;;;;;;;;;;4995877;28;20048;-70
2022/06/17 06:57:59;;;;;;;8.00;4.22;;;;;;;;;;5002467;28;20054;-70
2022/06/17 07:00:27;;;;;;;8.90;3.95;;;;;;;;;;5003421;28;20506;-70
2022/06/17 07:02:53;;;;;;;12.38;3.97;;;;;;;;;;5000857;28;20093;-70
2022/06/17 07:05:19;;;;;;;12.07;4.55;;;;;;;;;;4998234;28;20093;-70
2022/06/17 07:07:46;;;;;;;8.88;4.10;;;;;;;;;;5002317;28;20039;-69
2022/06/17 07:10:18;;;;;;;21.67;4.90;;;;;;;;;;5006882;28;20046;-70
2022/06/17 07:12:44;;;;;;;10.60;4.10;;;;;;;;;;5012220;28;20413;-70
2022/06/17 07:15:11;;;;;;;13.15;4.10;;;;;;;;;;5003828;28;20506;-70
2022/06/17 07:17:37;;;;;;;9.38;4.05;;;;;;;;;;4997914;28;20046;-70
2022/06/17 07:20:04;;;;;;;11.27;3.95;;;;;;;;;;4997346;28;20129;-70
2022/06/17 07:22:31;;;;;;;7.47;4.15;;;;;;;;;;4998050;28;20046;-70
2022/06/17 07:24:57;;;;;;;8.20;4.35;;;;;;;;;;4997836;28;20046;-71
2022/06/17 07:27:23;;;;;;;11.57;3.95;;;;;;;;;;4996355;28;20049;-70
2022/06/17 07:29:49;;;;;;;12.57;4.45;;;;;;;;;;4978085;28;20490;-71
2022/06/17 07:32:15;;;;;;;9.82;3.95;;;;;;;;;;4978682;28;20053;-70
2022/06/17 07:34:42;;;;;;;7.85;3.60;;;;;;;;;;4995842;28;20041;-70
2022/06/17 07:39:54;;;;;;;8.95;3.60;;;;;;;;;;5009671;28;20485;-71
2022/06/17 07:42:24;;;;;;;11.18;4.00;;;;;;;;;;5000319;28;20042;-71
2022/06/17 07:44:51;;;;;;;7.88;3.92;;;;;;;;;;4978382;28;20050;-71
2022/06/17 07:47:18;;;;;;;15.77;4.07;;;;;;;;;;4991354;28;20049;-71
2022/06/17 07:49:45;;;;;;;7.70;3.70;;;;;;;;;;5017680;28;20069;-71
2022/06/17 07:52:12;;;;;;;8.20;3.13;;;;;;;;;;5017440;28;20125;-71
2022/06/17 07:54:38;;;;;;;11.80;3.58;;;;;;;;;;5017618;28;20042;-71
2022/06/17 07:57:04;;;;;;;7.78;3.85;;;;;;;;;;5017126;28;20171;-70
2022/06/17 07:59:30;;;;;;;10.60;3.60;;;;;;;;;;5009850;28;20065;-70
2022/06/17 08:01:56;;;;;;;8.73;3.38;;;;;;;;;;4997621;28;20516;-70
2022/06/17 08:04:22;;;;;;;9.98;3.65;;;;;;;;;;4997533;28;20038;-70
2022/06/17 08:06:52;;;;;;;10.75;3.65;;;;;;;;;;4997988;28;20046;-71
2022/06/17 08:09:19;;;;;;;8.05;3.90;;;;;;;;;;4997512;28;20048;-70
2022/06/17 08:11:45;;;;;;;11.50;3.65;;;;;;;;;;4997578;28;20046;-70
2022/06/17 08:14:12;;;;;;;12.85;3.70;;;;;;;;;;4997120;28;20144;-70
2022/06/17 08:16:38;;;;;;;11.50;3.97;;;;;;;;;;4997810;28;20064;-70
2022/06/17 08:19:07;;;;;;;10.25;3.55;;;;;;;;;;4996674;28;20046;-70
2022/06/17 08:21:33;;;;;;;12.25;3.88;;;;;;;;;;5004259;28;20038;-70
2022/06/17 08:24:00;;;;;;;9.13;4.00;;;;;;;;;;5013251;28;20072;-70
2022/06/17 08:26:26;;;;;;;10.75;3.92;;;;;;;;;;4997770;28;20039;-71
2022/06/17 08:28:52;;;;;;;9.23;3.65;;;;;;;;;;5007003;28;20034;-71
2022/06/17 08:31:19;;;;;;;10.05;3.60;;;;;;;;;;4995927;28;20058;-70
2022/06/17 08:33:46;;;;;;;11.60;3.47;;;;;;;;;;4996191;28;20460;-70
2022/06/17 08:36:14;;;;;;;13.75;4.60;;;;;;;;;;4996138;28;20120;-70
2022/06/17 08:38:42;;;;;;;13.45;4.20;;;;;;;;;;4996464;28;20073;-70
2022/06/17 08:41:23;;;;;;;10.77;3.85;;;;;;;;;;4997024;28;20048;-70
2022/06/17 08:44:14;;;;;;;10.57;4.00;;;;;;;;;;4978170;28;20045;-70
2022/06/17 08:46:52;;;;;;;17.92;4.53;;;;;;;;;;4996732;28;20057;-70
2022/06/17 08:49:34;;;;;;;19.17;4.55;;;;;;;;;;5014846;28;20451;-70
2022/06/17 08:52:19;;;;;;;10.90;3.35;;;;;;;;;;5002835;28;20132;-70
2022/06/17 08:55:03;;;;;;;7.90;3.13;;;;;;;;;;5011930;28;20484;-70
2022/06/17 08:57:49;;;;;;;11.73;3.60;;;;;;;;;;5001453;28;20072;-70
2022/06/17 09:00:25;;;;;;;10.32;3.97;;;;;;;;;;4994976;28;20034;-70
2022/06/17 09:02:54;;;;;;;12.90;3.67;;;;;;;;;;4998652;28;20046;-70
2022/06/17 09:05:45;;;;;;;12.85;3.70;;;;;;;;;;4997807;28;20054;-70
2022/06/17 09:08:19;;;;;;;16.83;3.97;;;;;;;;;;4993430;28;20190;-70
2022/06/17 09:10:49;;;;;;;12.68;3.60;;;;;;;;;;4997920;28;20077;-71
2022/06/17 09:13:16;;;;;;;;;;;;;;;;;;4994526;28;20058;-71
2022/06/17 09:15:47;;;;;;;9.00;4.20;;;;;;;;;;4995535;28;19936;-71
2022/06/17 09:18:35;;;;;;;8.93;3.17;;;;;;;;;;4996240;28;20057;-71
2022/06/17 09:21:11;;;;;;;12.18;4.15;;;;;;;;;;4976015;28;20035;-71
2022/06/17 09:23:39;;;;;;;11.38;4.03;;;;;;;;;;4993860;28;20043;-70
2022/06/17 09:26:08;;;;;;;11.30;4.07;;;;;;;;;;5004137;28;20041;-71
2022/06/17 09:28:37;;;;;;;11.70;4.22;;;;;;;;;;4994128;28;20504;-71
2022/06/17 09:31:06;;;;;;;15.13;4.00;;;;;;;;;;4994267;28;20038;-71
2022/06/17 09:33:38;;;;;;;8.77;3.65;;;;;;;;;;4994765;28;20054;-70
2022/06/17 09:36:07;;;;;;;12.77;4.40;;;;;;;;;;4994789;28;20046;-70
2022/06/17 09:38:37;;;;;;;17.33;4.07;;;;;;;;;;4994070;28;20042;-70
2022/06/17 09:41:09;;;;;;;10.68;3.92;;;;;;;;;;4994408;28;20099;-70
2022/06/17 09:43:38;;;;;;;9.57;3.85;;;;;;;;;;4994209;28;20549;-70
2022/06/17 09:46:14;;;;;;;8.60;4.03;;;;;;;;;;4998212;28;20041;-71
2022/06/17 09:48:43;;;;;;;11.90;3.53;;;;;;;;;;4995117;28;20409;-70
2022/06/17 09:51:15;;;;;;;11.43;3.25;;;;;;;;;;4999877;28;20034;-70
2022/06/17 09:53:47;;;;;;;13.20;3.40;;;;;;;;;;4999922;28;20070;-70
2022/06/17 09:56:19;;;;;;;8.13;3.72;;;;;;;;;;4994081;28;20053;-70
2022/06/17 09:58:52;;;;;;;9.30;3.83;;;;;;;;;;4997806;28;20112;-70
2022/06/17 10:01:22;;;;;;;17.38;3.95;;;;;;;;;;5000248;28;20053;-70
2022/06/17 10:03:48;;;;;;;11.02;3.72;;;;;;;;;;5000827;28;20124;-70
2022/06/17 10:06:32;;;;;;;11.02;4.40;;;;;;;;;;5001125;28;20497;-70
2022/06/17 10:09:02;;;;;;;11.30;4.25;;;;;;;;;;4996374;28;20046;-70
2022/06/17 10:11:46;;;;;;;11.00;4.40;;;;;;;;;;5004166;28;20041;-70
2022/06/17 10:14:21;;;;;;;10.98;4.38;;;;;;;;;;4991673;28;20066;-69
2022/06/17 10:19:44;;;;;;;10.32;4.38;;;;;;;;;;4994203;28;20125;-69
2022/06/17 10:22:37;;;;;;;7.72;3.80;;;;;;;;;;5015483;28;20448;-69
2022/06/17 10:25:17;;;;;;;7.70;3.60;;;;;;;;;;5005569;28;20045;-70
2022/06/17 10:28:01;;;;;;;8.73;4.22;;;;;;;;;;4990816;28;20042;-70
2022/06/17 10:30:36;;;;;;;10.23;3.70;;;;;;;;;;5006626;28;20539;-70
2022/06/17 10:33:02;;;;;;;8.30;4.45;;;;;;;;;;5014363;28;20056;-69
2022/06/17 10:35:33;;;;;;;11.73;4.72;;;;;;;;;;5015944;28;20451;-68
2022/06/17 10:38:02;;;;;;;9.73;4.13;;;;;;;;;;5012336;28;20092;-69
2022/06/17 10:40:30;;;;;;;11.23;4.10;;;;;;;;;;5005543;28;20084;-68
2022/06/17 10:43:00;;;;;;;8.15;3.72;;;;;;;;;;5000468;28;20096;-68
2022/06/17 10:45:26;;;;;;;11.02;3.95;;;;;;;;;;5016908;28;20053;-69
2022/06/17 10:47:59;;;;;;;9.50;4.00;;;;;;;;;;5004841;28;20078;-68
2022/06/17 10:50:28;;;;;;;9.98;3.70;;;;;;;;;;5001006;28;20081;-69
2022/06/17 10:53:00;;;;;;;10.30;3.70;;;;;;;;;;5015747;28;20045;-69
2022/06/17 10:55:35;;;;;;;7.20;4.05;;;;;;;;;;5007865;28;20126;-69
2022/06/17 10:58:09;;;;;;;10.68;4.05;;;;;;;;;;4998388;28;20069;-69
2022/06/17 11:00:42;;;;;;;9.93;3.83;;;;;;;;;;4998415;28;20041;-69
2022/06/17 11:03:21;;;;;;;7.05;3.78;;;;;;;;;;4998185;28;20046;-69
2022/06/17 11:05:53;;;;;;;8.18;3.85;;;;;;;;;;5010604;28;20393;-69
2022/06/17 11:08:20;;;;;;;15.55;3.95;;;;;;;;;;5003599;28;20057;-69
2022/06/17 11:10:54;;;;;;;9.95;4.20;;;;;;;;;;4997994;28;20069;-70
2022/06/17 11:13:20;;;;;;;9.18;4.15;;;;;;;;;;5004170;28;20058;-69
2022/06/17 11:15:55;;;;;;;9.00;4.40;;;;;;;;;;4998409;28;20046;-69
2022/06/17 11:18:32;;;;;;;10.68;4.43;;;;;;;;;;5008122;28;20041;-69
2022/06/17 11:21:09;;;;;;;16.08;4.53;;;;;;;;;;5000863;28;20042;-69
2022/06/17 11:23:39;;;;;;;10.32;4.63;;;;;;;;;;5007388;28;20050;-69
2022/06/17 11:26:11;;;;;;;7.82;3.75;;;;;;;;;;4999568;28;20140;-69
2022/06/17 11:28:39;;;;;;;10.98;4.53;;;;;;;;;;4978376;28;20050;-69
2022/06/17 11:31:07;;;;;;;9.70;4.10;;;;;;;;;;4994680;28;20045;-69
2022/06/17 11:33:41;;;;;;;12.50;5.20;;;;;;;;;;4998763;28;20519;-69
2022/06/17 11:36:27;;;;;;;14.70;4.10;;;;;;;;;;4997037;28;20038;-69
2022/06/17 11:38:53;;;;;;;14.23;4.03;;;;;;;;;;5001279;28;20505;-69
2022/06/17 11:41:26;;;;;;;13.45;4.75;;;;;;;;;;5012535;28;20064;-69
2022/06/17 11:43:53;;;;;;;12.52;4.68;;;;;;;;;;4997593;28;20077;-69
2022/06/17 11:46:21;;;;;;;10.38;4.68;;;;;;;;;;4996687;28;20046;-69
2022/06/17 11:48:49;;;;;;;12.15;4.65;;;;;;;;;;4997154;28;20057;-69
2022/06/17 11:51:39;;;;;;;8.18;4.60;;;;;;;;;;5000443;28;20041;-69
2022/06/17 11:54:07;;;;;;;17.58;5.03;;;;;;;;;;4995910;28;20046;-69
2022/06/17 11:56:38;;;;;;;15.15;4.63;;;;;;;;;;5007600;28;20050;-69
2022/06/17 11:59:10;;;;;;;12.50;4.43;;;;;;;;;;4997201;28;20181;-69
2022/06/17 12:01:37;;;;;;;9.95;4.47;;;;;;;;;;5005528;28;20042;-69
2022/06/17 12:04:03;;;;;;;12.98;4.28;;;;;;;;;;5001038;28;20042;-69
2022/06/17 12:06:50;;;;;;;14.10;4.10;;;;;;;;;;5010736;28;20169;-69
2022/06/17 12:09:22;;;;;;;16.48;4.53;;;;;;;;;;5003442;28;20069;-69
2022/06/17 12:11:55;;;;;;;16.40;4.32;;;;;;;;;;5002702;28;20106;-69
2022/06/17 12:14:27;;;;;;;17.90;4.25;;;;;;;;;;5006303;28;20060;-69
2022/06/17 12:16:55;;;;;;;7.35;4.28;;;;;;;;;;5006513;28;20128;-69
2022/06/17 12:19:21;;;;;;;9.02;3.90;;;;;;;;;;5001243;28;20052;-69
2022/06/17 12:22:03;;;;;;;11.45;4.13;;;;;;;;;;4999968;28;20494;-69
2022/06/17 12:24:53;;;;;;;10.98;4.50;;;;;;;;;;5001128;28;20038;-70
2022/06/17 12:27:22;;;;;;;14.07;4.53;;;;;;;;;;4981462;28;20062;-69
2022/06/17 12:29:54;;;;;;;15.27;3.97;;;;;;;;;;5008464;28;20050;-69
2022/06/17 12:32:29;;;;;;;11.32;3.88;;;;;;;;;;5012308;28;20054;-69
2022/06/17 12:34:58;;;;;;;15.05;4.30;;;;;;;;;;4997143;28;20121;-69
2022/06/17 12:37:33;;;;;;;20.38;5.10;;;;;;;;;;4996117;28;20034;-70
2022/06/17 12:40:07;;;;;;;14.27;4.30;;;;;;;;;;4996522;28;20034;-69
2022/06/17 12:42:37;;;;;;;15.57;5.47;;;;;;;;;;4997428;28;20103;-69
2022/06/17 12:45:03;;;;;;;15.15;4.32;;;;;;;;;;5001570;28;20053;-69
2022/06/17 12:47:47;;;;;;;12.95;3.95;;;;;;;;;;5015036;28;20045;-69
2022/06/17 12:53:33;;;;;;;11.75;4.35;;;;;;;;;;4996990;28;20461;-69
2022/06/17 12:55:59;;;;;;;12.65;3.97;;;;;;;;;;4916272;29;20072;-69
2022/06/17 12:58:44;;;;;;;18.30;4.53;;;;;;;;;;4979866;28;20038;-69
2022/06/17 13:01:18;;;;;;;13.95;5.00;;;;;;;;;;4999990;28;20038;-69
2022/06/17 13:04:02;;;;;;;16.35;4.25;;;;;;;;;;5002610;28;20042;-69
2022/06/17 13:06:28;;;;;;;15.05;4.45;;;;;;;;;;5000493;28;20132;-69
2022/06/17 13:09:02;;;;;;;18.70;4.75;;;;;;;;;;5011260;28;20052;-69
2022/06/17 13:11:38;;;;;;;13.13;4.55;;;;;;;;;;5002019;28;20512;-69
2022/06/17 13:14:04;;;;;;;16.00;4.13;;;;;;;;;;4996860;28;20062;-69
2022/06/17 13:16:36;;;;;;;14.80;3.92;;;;;;;;;;4991680;28;20046;-69
2022/06/17 13:19:14;;;;;;;16.90;4.80;;;;;;;;;;4994212;28;20038;-69
2022/06/17 13:22:10;;;;;;;16.80;4.40;;;;;;;;;;4995491;28;20072;-69
2022/06/17 13:24:39;;;;;;;18.20;4.90;;;;;;;;;;4942688;28;20047;-71
2022/06/17 13:27:14;;;;;;;16.35;4.28;;;;;;;;;;5002135;28;20409;-70
2022/06/17 13:30:01;;;;;;;15.60;4.20;;;;;;;;;;4994419;28;20129;-70
2022/06/17 13:32:31;;;;;;;21.77;6.85;;;;;;;;;;4995639;28;20125;-70
2022/06/17 13:35:27;;;;;;;13.38;4.78;;;;;;;;;;4998133;28;20132;-70
2022/06/17 13:37:58;;;;;;;13.32;3.78;;;;;;;;;;4987822;28;20042;-70
2022/06/17 13:40:43;;;;;;;16.08;5.13;;;;;;;;;;4996215;28;20042;-70
2022/06/17 13:43:16;;;;;;;20.35;4.55;;;;;;;;;;5005353;28;20507;-69
2022/06/17 13:45:44;;;;;;;12.68;4.53;;;;;;;;;;5004730;28;20109;-69
2022/06/17 13:48:17;;;;;;;13.32;4.60;;;;;;;;;;4994277;28;20489;-70
2022/06/17 13:51:01;;;;;;;26.58;5.45;;;;;;;;;;4984946;28;20049;-70
2022/06/17 13:53:28;;;;;;;19.27;5.10;;;;;;;;;;4993857;28;20521;-69
2022/06/17 13:56:12;;;;;;;18.20;4.15;;;;;;;;;;4995966;28;20069;-69
2022/06/17 13:58:54;;;;;;;17.33;4.53;;;;;;;;;;5004349;28;20053;-69
2022/06/17 14:01:25;;;;;;;13.10;4.32;;;;;;;;;;4999734;28;20034;-69
2022/06/17 14:03:54;;;;;;;12.23;4.25;;;;;;;;;;4981269;28;20576;-69
2022/06/17 14:06:21;;;;;;;16.60;4.88;;;;;;;;;;4980942;28;20073;-70
2022/06/17 14:09:08;;;;;;;23.35;4.70;;;;;;;;;;4995279;28;20073;-69
2022/06/17 14:11:37;;;;;;;16.75;4.30;;;;;;;;;;5000038;28;20029;-69
2022/06/17 14:14:18;;;;;;;15.13;4.97;;;;;;;;;;5006086;28;20061;-69
2022/06/17 14:17:03;;;;;;;17.67;5.07;;;;;;;;;;4993184;28;20046;-69
2022/06/17 14:19:35;;;;;;;11.68;4.60;;;;;;;;;;4992145;28;20523;-69
2022/06/17 14:22:02;;;;;;;18.58;4.15;;;;;;;;;;5001013;28;20493;-70
2022/06/17 14:24:43;;;;;;;15.60;4.13;;;;;;;;;;5005827;28;20124;-70
2022/06/17 14:27:14;;;;;;;18.00;5.35;;;;;;;;;;5006769;28;20042;-69
2022/06/17 14:29:40;;;;;;;22.10;4.10;;;;;;;;;;5003418;28;20112;-70
2022/06/17 14:32:18;;;;;;;29.08;4.88;;;;;;;;;;4994562;28;20042;-70
2022/06/17 14:34:47;;;;;;;21.33;4.53;;;;;;;;;;5002647;28;20052;-70
2022/06/17 14:37:32;;;;;;;15.88;4.55;;;;;;;;;;4987437;28;20048;-69
2022/06/17 14:40:08;;;;;;;20.27;5.05;;;;;;;;;;4997545;28;20038;-70
2022/06/17 14:42:46;;;;;;;23.55;5.13;;;;;;;;;;4995344;28;20166;-70
2022/06/17 14:45:30;;;;;;;16.02;4.22;;;;;;;;;;5003512;28;20069;-70
2022/06/17 14:47:59;;;;;;;24.52;4.72;;;;;;;;;;4990695;28;20046;-69
2022/06/17 14:50:45;;;;;;;19.77;4.15;;;;;;;;;;4994008;28;20050;-70
2022/06/17 14:53:11;;;;;;;22.25;4.65;;;;;;;;;;5005259;28;20481;-69
2022/06/17 14:55:39;;;;;;;26.92;4.90;;;;;;;;;;4992859;28;20042;-70
2022/06/17 14:58:06;;;;;;;23.98;5.18;;;;;;;;;;5001781;28;20403;-69
2022/06/17 15:00:41;;;;;;;22.77;5.03;;;;;;;;;;4997391;28;20040;-70
2022/06/17 15:03:33;;;;;;;24.80;4.70;;;;;;;;;;4991701;28;20070;-69
2022/06/17 16:54:22;;;;;;;20.25;4.72;;;;;;;;;;5552811;23;20086;-69
2022/06/17 16:56:50;;;;;;;24.70;5.55;;;;;;;;;;4957568;29;20043;-70
2022/06/17 16:59:18;;;;;;;18.38;5.03;;;;;;;;;;4957420;29;20126;-70
2022/06/17 17:01:45;;;;;;;19.58;4.53;;;;;;;;;;4957368;29;20043;-71
2022/06/17 17:04:11;;;;;;;19.95;4.15;;;;;;;;;;4956959;29;20515;-70